createdAt,value
2022-10-29T00:00:54.744Z,85.88
2022-10-29T00:03:22.137Z,84.96
2022-10-29T00:06:03.264Z,85.33
2022-10-29T00:08:31.448Z,85.32
2022-10-29T00:11:08.632Z,85.67
2022-10-29T00:13:36.422Z,85.72
2022-10-29T00:16:15.300Z,85.15
2022-10-29T00:18:42.376Z,85.23
2022-10-29T00:21:13.662Z,84.07
2022-10-29T00:23:40.776Z,84.52
2022-10-29T00:26:07.739Z,85.00
2022-10-29T00:28:34.554Z,85.11
2022-10-29T00:31:09.766Z,84.79
2022-10-29T00:33:36.314Z,84.93
2022-10-29T00:36:10.097Z,84.59
2022-10-29T00:38:36.656Z,84.77
2022-10-29T00:41:05.539Z,84.86
2022-10-29T00:43:37.665Z,85.28
2022-10-29T00:46:08.993Z,84.39
2022-10-29T00:48:41.871Z,85.57
2022-10-29T00:51:10.887Z,85.98
2022-10-29T00:53:41.773Z,85.52
2022-10-29T00:56:08.434Z,85.60
2022-10-29T00:58:35.254Z,85.73
2022-10-29T01:01:02.394Z,86.12
2022-10-29T01:03:28.966Z,86.63
2022-10-29T01:05:55.675Z,87.24
2022-10-29T01:08:22.557Z,87.06
2022-10-29T01:10:52.060Z,87.05
2022-10-29T01:13:33.225Z,87.69
2022-10-29T01:16:27.299Z,87.65
2022-10-29T01:19:02.861Z,87.47
2022-10-29T01:21:40.354Z,87.73
2022-10-29T01:24:12.941Z,87.80
2022-10-29T01:26:49.013Z,88.38
2022-10-29T01:29:32.548Z,88.35
2022-10-29T01:32:33.913Z,88.55
2022-10-29T01:35:08.157Z,88.85
2022-10-29T01:37:45.121Z,89.20
2022-10-29T01:40:45.195Z,90.53
2022-10-29T01:43:17.553Z,90.39
2022-10-29T01:45:52.879Z,90.77
2022-10-29T01:48:29.021Z,90.75
2022-10-29T01:51:03.695Z,90.96
2022-10-29T01:53:33.916Z,91.19
2022-10-29T01:56:00.396Z,90.79
2022-10-29T01:58:26.930Z,90.87
2022-10-29T02:01:20.246Z,91.58
2022-10-29T02:04:05.251Z,91.58
2022-10-29T02:06:45.954Z,91.81
2022-10-29T02:09:21.333Z,91.79
2022-10-29T02:11:54.736Z,92.31
2022-10-29T02:14:27.981Z,91.78
2022-10-29T02:16:59.234Z,91.79
2022-10-29T02:19:30.956Z,92.48
2022-10-29T02:21:57.451Z,92.15
2022-10-29T02:24:24.765Z,92.91
2022-10-29T02:26:52.029Z,92.84
2022-10-29T02:29:18.903Z,92.79
2022-10-29T02:31:45.514Z,92.75
2022-10-29T02:34:12.299Z,93.36
2022-10-29T02:36:38.802Z,93.36
2022-10-29T02:39:05.310Z,93.17
2022-10-29T02:41:31.926Z,92.69
2022-10-29T02:43:58.402Z,93.05
2022-10-29T02:46:25.140Z,92.94
2022-10-29T02:48:51.618Z,93.16
2022-10-29T02:51:18.498Z,92.95
2022-10-29T02:53:45.063Z,93.19
2022-10-29T02:56:11.652Z,92.69
2022-10-29T02:58:38.603Z,92.36
2022-10-29T03:01:06.869Z,92.73
2022-10-29T03:03:33.361Z,92.67
2022-10-29T03:05:59.849Z,93.05
2022-10-29T03:08:26.429Z,92.68
2022-10-29T03:10:54.879Z,93.07
2022-10-29T03:13:21.414Z,93.03
2022-10-29T03:15:47.947Z,93.01
2022-10-29T03:18:14.665Z,92.92
2022-10-29T03:20:42.745Z,93.05
2022-10-29T03:23:09.233Z,92.81
2022-10-29T03:25:35.802Z,93.12
2022-10-29T03:28:02.310Z,93.11
2022-10-29T03:30:28.886Z,93.23
2022-10-29T03:32:55.788Z,93.80
2022-10-29T03:35:22.427Z,93.49
2022-10-29T03:37:50.925Z,93.39
2022-10-29T03:40:18.746Z,93.92
2022-10-29T03:42:46.062Z,94.24
2022-10-29T03:45:12.631Z,94.45
2022-10-29T03:47:39.265Z,94.22
2022-10-29T03:50:06.270Z,94.46
2022-10-29T03:52:32.694Z,94.59
2022-10-29T03:54:59.191Z,95.29
2022-10-29T03:57:25.696Z,95.25
2022-10-29T03:59:52.764Z,95.78
2022-10-29T04:02:19.862Z,95.48
2022-10-29T04:04:46.570Z,95.87
2022-10-29T04:07:13.131Z,95.91
2022-10-29T04:09:39.870Z,96.58
2022-10-29T04:12:07.097Z,96.23
2022-10-29T04:14:33.661Z,96.54
2022-10-29T04:17:00.449Z,96.23
2022-10-29T04:19:26.990Z,96.65
2022-10-29T04:32:45.591Z,96.73
2022-10-29T04:35:12.083Z,96.77
2022-10-29T04:37:38.691Z,96.87
2022-10-29T04:40:05.689Z,98.17
2022-10-29T04:42:39.166Z,97.31
2022-10-29T04:45:07.375Z,97.02
2022-10-29T04:47:34.254Z,97.02
2022-10-29T04:50:00.923Z,97.10
2022-10-29T04:52:27.437Z,97.00
2022-10-29T04:54:53.920Z,97.00
2022-10-29T04:57:20.437Z,97.53
2022-10-29T04:59:46.865Z,98.12
2022-10-29T05:02:13.382Z,98.08
2022-10-29T05:04:40.307Z,97.85
2022-10-29T05:07:06.775Z,98.76
2022-10-29T05:09:33.311Z,98.10
2022-10-29T05:11:59.836Z,97.88
2022-10-29T05:14:26.361Z,98.55
2022-10-29T05:16:52.902Z,98.31
2022-10-29T05:19:19.400Z,98.05
2022-10-29T05:21:46.115Z,98.83
2022-10-29T05:24:12.608Z,98.38
2022-10-29T05:26:39.076Z,98.21
2022-10-29T05:29:05.534Z,98.52
2022-10-29T05:31:32.188Z,98.35
2022-10-29T05:33:58.840Z,98.82
2022-10-29T05:36:25.366Z,98.59
2022-10-29T05:38:51.869Z,97.65
2022-10-29T05:41:18.397Z,97.78
2022-10-29T05:43:48.597Z,97.81
2022-10-29T05:46:16.628Z,97.67
2022-10-29T05:48:43.113Z,97.77
2022-10-29T05:51:09.820Z,97.75
2022-10-29T05:53:36.611Z,97.66
2022-10-29T05:56:03.216Z,97.83
2022-10-29T05:58:29.719Z,98.35
2022-10-29T06:00:56.201Z,98.42
2022-10-29T06:03:23.308Z,98.05
2022-10-29T06:05:50.847Z,98.41
2022-10-29T06:08:17.752Z,98.46
2022-10-29T06:10:44.527Z,98.45
2022-10-29T06:13:12.635Z,98.73
2022-10-29T06:15:39.291Z,99.52
2022-10-29T06:18:05.826Z,99.09
2022-10-29T06:20:32.508Z,98.95
2022-10-29T06:22:59.358Z,99.30
2022-10-29T06:25:27.030Z,99.49
2022-10-29T06:28:03.664Z,99.13
2022-10-29T06:30:32.247Z,99.07
2022-10-29T06:32:59.750Z,98.90
2022-10-29T06:35:26.576Z,98.44
2022-10-29T06:37:53.418Z,98.37
2022-10-29T06:40:20.488Z,98.51
2022-10-29T06:42:47.068Z,98.44
2022-10-29T06:45:14.796Z,98.25
2022-10-29T06:47:43.088Z,98.28
2022-10-29T06:50:10.646Z,98.66
2022-10-29T06:52:37.910Z,98.60
2022-10-29T06:55:06.055Z,98.24
2022-10-29T06:57:32.695Z,97.85
2022-10-29T07:00:03.696Z,97.98
2022-10-29T07:02:33.966Z,98.06
2022-10-29T07:05:00.516Z,97.87
2022-10-29T07:07:29.328Z,97.41
2022-10-29T07:09:55.884Z,97.63
2022-10-29T07:12:22.620Z,97.56
2022-10-29T07:14:49.381Z,97.60
2022-10-29T07:17:16.018Z,97.36
2022-10-29T07:19:42.486Z,97.07
2022-10-29T07:22:09.052Z,96.84
2022-10-29T07:24:35.581Z,96.65
2022-10-29T07:27:02.090Z,96.43
2022-10-29T07:29:28.648Z,96.30
2022-10-29T07:31:55.174Z,96.08
2022-10-29T07:34:21.706Z,95.77
2022-10-29T07:36:48.249Z,95.52
2022-10-29T07:39:14.757Z,95.48
2022-10-29T07:41:41.203Z,94.69
2022-10-29T07:44:07.698Z,94.55
2022-10-29T07:46:34.118Z,94.03
2022-10-29T07:49:00.806Z,94.07
2022-10-29T07:51:27.401Z,93.25
2022-10-29T07:53:54.625Z,92.77
2022-10-29T07:56:21.143Z,92.82
2022-10-29T07:58:47.661Z,92.56
2022-10-29T08:01:14.392Z,92.55
2022-10-29T08:03:40.943Z,92.15
2022-10-29T08:06:07.654Z,91.73
2022-10-29T08:08:34.934Z,91.45
2022-10-29T08:11:02.990Z,90.76
2022-10-29T08:13:29.741Z,90.50
2022-10-29T08:15:56.689Z,89.81
2022-10-29T08:18:23.241Z,89.77
2022-10-29T08:20:49.871Z,89.74
2022-10-29T08:23:16.614Z,89.20
2022-10-29T08:25:45.141Z,89.08
2022-10-29T08:28:15.621Z,88.71
2022-10-29T08:30:43.985Z,88.28
2022-10-29T08:33:11.011Z,88.32
2022-10-29T08:35:37.594Z,87.44
2022-10-29T08:38:04.081Z,87.38
2022-10-29T08:41:01.398Z,87.45
2022-10-29T08:43:47.692Z,86.67
2022-10-29T08:46:23.287Z,86.28
2022-10-29T08:48:55.566Z,86.42
2022-10-29T08:51:21.975Z,86.18
2022-10-29T08:54:10.396Z,85.84
2022-10-29T08:56:44.105Z,85.25
2022-10-29T08:59:14.877Z,85.10
2022-10-29T09:01:42.294Z,83.51
2022-10-29T09:04:30.049Z,82.71
2022-10-29T09:07:14.303Z,81.36
2022-10-29T09:09:46.979Z,79.62
2022-10-29T09:12:51.234Z,77.69
2022-10-29T09:15:27.588Z,77.06
2022-10-29T09:18:25.790Z,76.94
2022-10-29T09:21:22.192Z,76.51
2022-10-29T09:23:58.472Z,76.44
2022-10-29T09:26:32.031Z,76.07
2022-10-29T09:29:35.592Z,76.65
2022-10-29T09:32:11.792Z,76.32
2022-10-29T09:34:50.667Z,76.35
2022-10-29T09:37:25.036Z,76.78
2022-10-29T09:39:53.519Z,77.20
2022-10-29T09:42:28.676Z,77.60
2022-10-29T09:45:02.882Z,77.08
2022-10-29T09:47:47.422Z,78.02
2022-10-29T09:50:30.444Z,78.50
2022-10-29T09:52:57.287Z,79.28
2022-10-29T09:55:30.294Z,79.02
2022-10-29T09:57:57.576Z,78.73
2022-10-29T10:00:27.762Z,78.49
2022-10-29T10:03:12.776Z,78.92
2022-10-29T10:06:04.423Z,78.96
2022-10-29T10:08:32.691Z,78.66
2022-10-29T10:11:07.333Z,78.53
2022-10-29T10:13:51.133Z,77.89
2022-10-29T10:16:24.958Z,78.13
2022-10-29T10:18:51.524Z,77.76
2022-10-29T10:21:32.897Z,78.14
2022-10-29T10:24:00.432Z,77.99
2022-10-29T10:26:44.714Z,78.74
2022-10-29T10:29:14.716Z,78.99
2022-10-29T10:31:43.352Z,78.35
2022-10-29T10:34:21.906Z,78.20
2022-10-29T10:37:02.137Z,77.33
2022-10-29T10:39:34.945Z,77.12
2022-10-29T10:42:05.383Z,76.70
2022-10-29T10:44:33.105Z,76.59
2022-10-29T10:47:05.981Z,76.53
2022-10-29T10:49:34.741Z,77.06
2022-10-29T10:52:14.183Z,76.55
2022-10-29T10:54:58.016Z,75.99
2022-10-29T10:57:29.240Z,76.49
2022-10-29T11:00:17.563Z,76.39
2022-10-29T11:03:13.567Z,76.57
2022-10-29T11:05:46.529Z,75.56
2022-10-29T11:08:37.248Z,76.36
2022-10-29T11:11:22.839Z,76.11
2022-10-29T11:13:51.161Z,75.40
2022-10-29T11:16:54.998Z,75.57
2022-10-29T11:19:43.051Z,74.74
2022-10-29T11:22:22.653Z,74.67
2022-10-29T11:24:57.347Z,73.47
2022-10-29T11:27:48.780Z,73.62
2022-10-29T11:30:17.963Z,73.02
2022-10-29T11:33:05.713Z,72.29
2022-10-29T11:36:00.542Z,74.02
2022-10-29T11:38:46.466Z,73.57
2022-10-29T11:41:27.977Z,73.83
2022-10-29T11:43:54.874Z,73.42
2022-10-29T11:46:46.639Z,74.33
2022-10-29T11:49:37.465Z,74.24
2022-10-29T11:52:14.201Z,73.44
2022-10-29T11:55:12.310Z,73.80
2022-10-29T11:58:23.405Z,74.37
2022-10-29T12:01:34.423Z,74.90
2022-10-29T12:04:24.128Z,74.36
2022-10-29T12:07:09.386Z,74.59
2022-10-29T12:10:11.216Z,75.28
2022-10-29T12:12:54.899Z,74.34
2022-10-29T12:15:37.051Z,74.33
2022-10-29T12:18:13.433Z,73.76
2022-10-29T12:20:47.514Z,73.95
2022-10-29T12:23:53.910Z,74.75
2022-10-29T12:26:31.562Z,75.57
2022-10-29T12:29:28.953Z,73.93
2022-10-29T12:32:12.887Z,72.85
2022-10-29T12:35:06.489Z,74.03
2022-10-29T12:37:57.942Z,72.33
2022-10-29T12:40:28.787Z,72.55
2022-10-29T12:42:57.363Z,72.44
2022-10-29T12:45:48.050Z,70.86
2022-10-29T12:48:37.318Z,70.65
2022-10-29T12:51:18.022Z,69.95
2022-10-29T12:54:01.159Z,71.22
2022-10-29T12:56:30.251Z,71.92
2022-10-29T12:58:59.574Z,71.88
2022-10-29T13:01:49.988Z,73.02
2022-10-29T13:04:22.408Z,71.04
2022-10-29T13:07:04.882Z,71.43
2022-10-29T13:09:36.735Z,72.34
2022-10-29T13:12:11.011Z,70.91
2022-10-29T13:14:40.405Z,70.41
2022-10-29T13:17:31.095Z,71.06
2022-10-29T13:20:00.830Z,70.90
2022-10-29T13:22:34.881Z,70.30
2022-10-29T13:25:29.509Z,71.04
2022-10-29T13:27:56.040Z,69.71
2022-10-29T13:30:25.665Z,70.72
2022-10-29T13:32:54.892Z,70.53
2022-10-29T13:35:21.747Z,70.77
2022-10-29T13:38:17.802Z,70.14
2022-10-29T13:41:11.937Z,68.77
2022-10-29T13:43:40.215Z,69.61
2022-10-29T13:46:17.292Z,68.91
2022-10-29T13:48:46.349Z,69.08
2022-10-29T13:51:18.128Z,70.13
2022-10-29T13:54:07.838Z,68.83
2022-10-29T13:56:54.325Z,68.99
2022-10-29T13:59:28.492Z,69.89
2022-10-29T14:02:02.908Z,70.31
2022-10-29T14:04:38.741Z,69.25
2022-10-29T14:07:12.174Z,70.74
2022-10-29T14:09:46.938Z,68.84
2022-10-29T14:12:24.898Z,69.45
2022-10-29T14:15:08.381Z,69.46
2022-10-29T14:17:35.076Z,70.45
2022-10-29T14:20:01.792Z,70.57
2022-10-29T14:22:38.161Z,71.89
2022-10-29T14:25:24.737Z,74.07
2022-10-29T14:28:17.641Z,72.70
2022-10-29T14:30:46.299Z,73.83
2022-10-29T14:33:26.056Z,76.22
2022-10-29T14:36:01.423Z,77.71
2022-10-29T14:38:36.424Z,78.52
2022-10-29T14:41:03.135Z,79.23
2022-10-29T14:43:30.189Z,79.96
2022-10-29T14:46:10.717Z,80.67
2022-10-29T14:48:38.811Z,81.40
2022-10-29T14:51:05.884Z,82.10
2022-10-29T14:53:35.183Z,82.60
2022-10-29T14:56:09.464Z,83.04
2022-10-29T14:58:37.910Z,83.19
2022-10-29T15:01:12.200Z,83.89
2022-10-29T15:03:39.026Z,84.26
2022-10-29T15:06:13.956Z,84.74
2022-10-29T15:08:42.677Z,84.48
2022-10-29T15:11:27.804Z,84.81
2022-10-29T15:13:54.366Z,85.20
2022-10-29T15:16:21.507Z,85.23
2022-10-29T15:18:53.331Z,85.94
2022-10-29T15:21:24.502Z,86.36
2022-10-29T15:23:56.269Z,86.00
2022-10-29T15:26:22.933Z,86.54
2022-10-29T15:28:52.467Z,86.77
2022-10-29T15:31:24.334Z,87.26
2022-10-29T15:33:52.810Z,87.47
2022-10-29T15:36:19.423Z,87.95
2022-10-29T15:38:52.320Z,88.11
2022-10-29T15:41:45.189Z,88.22
2022-10-29T15:44:36.102Z,88.38
2022-10-29T15:47:19.600Z,88.91
2022-10-29T15:49:46.107Z,89.21
2022-10-29T15:52:17.666Z,89.21
2022-10-29T15:54:44.664Z,89.17
2022-10-29T15:57:14.350Z,89.48
2022-10-29T15:59:41.276Z,89.64
2022-10-29T16:02:19.107Z,89.74
2022-10-29T16:04:45.703Z,89.70
2022-10-29T16:07:16.048Z,89.85
2022-10-29T16:09:49.137Z,89.57
2022-10-29T16:12:16.015Z,90.28
2022-10-29T16:14:42.631Z,90.45
2022-10-29T16:17:18.145Z,90.43
2022-10-29T16:19:44.899Z,90.36
2022-10-29T16:22:14.506Z,90.16
2022-10-29T16:24:41.424Z,90.33
2022-10-29T16:27:16.401Z,90.73
2022-10-29T16:29:42.921Z,90.90
2022-10-29T16:32:27.299Z,90.78
2022-10-29T16:34:53.806Z,90.79
2022-10-29T16:37:21.657Z,91.24
2022-10-29T16:39:48.202Z,91.20
2022-10-29T16:42:29.716Z,91.37
2022-10-29T16:44:56.524Z,91.56
2022-10-29T16:47:23.336Z,92.01
2022-10-29T16:49:49.831Z,92.33
2022-10-29T16:52:20.969Z,92.33
2022-10-29T16:54:49.046Z,92.26
2022-10-29T16:57:15.599Z,92.08
2022-10-29T16:59:42.045Z,92.10
2022-10-29T17:02:10.788Z,92.31
2022-10-29T17:04:37.343Z,92.43
2022-10-29T17:07:03.956Z,92.49
2022-10-29T17:09:30.830Z,92.56
2022-10-29T17:11:57.694Z,92.51
2022-10-29T17:14:24.770Z,92.88
2022-10-29T17:16:51.329Z,93.06
2022-10-29T17:19:17.861Z,92.91
2022-10-29T17:21:44.446Z,93.27
2022-10-29T17:24:11.170Z,93.31
2022-10-29T17:26:37.649Z,93.17
2022-10-29T17:29:04.219Z,93.12
2022-10-29T17:31:30.727Z,93.59
2022-10-29T17:33:57.222Z,93.58
2022-10-29T17:36:23.679Z,93.53
2022-10-29T17:38:50.176Z,93.48
2022-10-29T17:41:16.627Z,93.57
2022-10-29T17:43:43.261Z,93.73
2022-10-29T17:46:09.817Z,93.98
2022-10-29T17:48:36.790Z,94.33
2022-10-29T17:51:03.435Z,94.25
2022-10-29T17:53:31.311Z,94.11
2022-10-29T17:55:59.314Z,94.39
2022-10-29T17:58:26.675Z,94.70
2022-10-29T18:00:53.492Z,94.41
2022-10-29T18:03:20.106Z,94.27
2022-10-29T18:05:47.060Z,94.77
2022-10-29T18:08:13.598Z,94.92
2022-10-29T18:10:40.131Z,94.71
2022-10-29T18:13:06.587Z,94.70
2022-10-29T18:15:33.108Z,94.76
2022-10-29T18:18:00.692Z,94.91
2022-10-29T18:20:27.177Z,95.00
2022-10-29T18:22:55.981Z,95.10
2022-10-29T18:25:22.963Z,95.14
2022-10-29T18:27:55.372Z,95.11
2022-10-29T18:30:22.856Z,95.27
2022-10-29T18:32:49.554Z,95.58
2022-10-29T18:35:16.530Z,95.77
2022-10-29T18:37:43.097Z,95.89
2022-10-29T18:40:11.859Z,95.89
2022-10-29T18:42:38.555Z,95.85
2022-10-29T18:45:05.622Z,95.98
2022-10-29T18:47:32.188Z,96.47
2022-10-29T18:49:58.763Z,96.20
2022-10-29T18:52:25.256Z,96.22
2022-10-29T18:54:51.851Z,96.10
2022-10-29T18:57:19.482Z,96.48
2022-10-29T18:59:46.229Z,96.11
2022-10-29T19:02:12.857Z,96.13
2022-10-29T19:04:39.530Z,96.38
2022-10-29T19:07:06.122Z,96.48
2022-10-29T19:09:32.712Z,96.30
2022-10-29T19:11:59.654Z,96.26
2022-10-29T19:14:26.321Z,96.30
2022-10-29T19:16:52.844Z,96.38
2022-10-29T19:19:22.882Z,96.24
2022-10-29T19:21:50.646Z,96.35
2022-10-29T19:24:17.715Z,96.64
2022-10-29T19:26:44.333Z,96.37
2022-10-29T19:29:11.266Z,96.34
2022-10-29T19:31:37.756Z,96.40
2022-10-29T19:34:06.646Z,96.37
2022-10-29T19:36:35.032Z,96.36
2022-10-29T19:39:01.916Z,96.45
2022-10-29T19:41:29.302Z,96.47
2022-10-29T19:43:59.938Z,96.51
2022-10-29T19:46:26.556Z,96.65
2022-10-29T19:48:54.840Z,96.72
2022-10-29T19:51:22.475Z,96.90
2022-10-29T19:53:51.299Z,96.83
2022-10-29T19:56:18.627Z,96.90
2022-10-29T19:58:45.640Z,96.82
2022-10-29T20:01:16.006Z,96.75
2022-10-29T20:03:43.266Z,96.79
2022-10-29T20:06:11.150Z,97.03
2022-10-29T20:08:38.014Z,97.27
2022-10-29T20:11:05.411Z,97.18
2022-10-29T20:13:32.149Z,97.49
2022-10-29T20:15:58.750Z,97.53
2022-10-29T20:18:25.463Z,97.78
2022-10-29T20:20:56.474Z,97.72
2022-10-29T20:23:25.568Z,97.78
2022-10-29T20:25:52.220Z,97.76
2022-10-29T20:28:18.771Z,97.74
2022-10-29T20:30:45.290Z,97.70
2022-10-29T20:33:11.893Z,97.83
2022-10-29T20:35:38.604Z,97.78
2022-10-29T20:38:05.783Z,97.69
2022-10-29T20:40:32.397Z,97.80
2022-10-29T20:42:59.013Z,97.84
2022-10-29T20:45:25.568Z,97.78
2022-10-29T20:47:52.109Z,97.78
2022-10-29T20:50:18.666Z,97.89
2022-10-29T20:52:48.650Z,98.01
2022-10-29T20:55:16.036Z,98.16
2022-10-29T20:57:42.664Z,98.16
2022-10-29T21:00:09.821Z,98.12
2022-10-29T21:02:36.453Z,98.15
2022-10-29T21:05:03.188Z,98.10
2022-10-29T21:07:29.719Z,98.15
2022-10-29T21:09:56.293Z,98.21
2022-10-29T21:12:22.827Z,98.12
2022-10-29T21:14:49.328Z,98.18
2022-10-29T21:17:15.813Z,98.16
2022-10-29T21:19:42.386Z,98.25
2022-10-29T21:22:08.908Z,98.15
2022-10-29T21:24:35.743Z,98.22
2022-10-29T21:27:02.622Z,98.21
2022-10-29T21:29:29.169Z,98.19
2022-10-29T21:31:55.805Z,98.10
2022-10-29T21:34:22.622Z,98.24
2022-10-29T21:36:49.594Z,98.24
2022-10-29T21:39:16.168Z,98.27
2022-10-29T21:41:42.691Z,98.28
2022-10-29T21:44:09.329Z,98.37
2022-10-29T21:46:35.899Z,98.30
2022-10-29T21:49:02.387Z,98.68
2022-10-29T21:51:28.882Z,98.54
2022-10-29T21:53:55.534Z,98.51
2022-10-29T21:56:22.068Z,98.48
2022-10-29T21:58:51.314Z,98.47
2022-10-29T22:01:18.643Z,98.47
2022-10-29T22:03:46.760Z,98.53
2022-10-29T22:06:14.656Z,98.50
2022-10-29T22:08:41.532Z,98.56
2022-10-29T22:11:08.154Z,98.62
2022-10-29T22:13:35.194Z,98.55
2022-10-29T22:16:03.761Z,98.59
2022-10-29T22:18:30.729Z,98.58
2022-10-29T22:21:04.009Z,98.55
2022-10-29T22:23:30.510Z,98.60
2022-10-29T22:25:57.122Z,98.66
2022-10-29T22:28:23.629Z,98.67
2022-10-29T22:30:57.177Z,98.68
2022-10-29T22:33:23.742Z,98.86
2022-10-29T22:35:50.247Z,98.89
2022-10-29T22:38:16.665Z,98.79
2022-10-29T22:40:43.159Z,98.80
2022-10-29T22:43:09.681Z,98.75
2022-10-29T22:45:36.233Z,98.98
2022-10-29T22:48:02.742Z,99.19
2022-10-29T22:50:29.241Z,99.08
2022-10-29T22:52:56.464Z,99.05
2022-10-29T22:55:23.178Z,98.87
2022-10-29T22:57:49.696Z,98.74
2022-10-29T23:00:16.849Z,98.76
2022-10-29T23:02:43.392Z,98.83
2022-10-29T23:05:09.946Z,98.84
2022-10-29T23:07:36.497Z,98.86
2022-10-29T23:10:03.326Z,98.89
2022-10-29T23:12:30.029Z,98.87
2022-10-29T23:14:56.462Z,98.84
2022-10-29T23:17:23.129Z,98.92
2022-10-29T23:19:49.742Z,99.04
2022-10-29T23:22:16.241Z,98.98
2022-10-29T23:24:42.743Z,98.84
2022-10-29T23:27:09.244Z,98.77
2022-10-29T23:29:36.381Z,98.83
2022-10-29T23:32:03.619Z,99.02
2022-10-29T23:34:30.142Z,98.79
2022-10-29T23:36:57.654Z,98.83
2022-10-29T23:39:24.107Z,98.81
2022-10-29T23:41:50.549Z,98.86
2022-10-29T23:44:17.124Z,98.93
2022-10-29T23:46:43.626Z,98.98
2022-10-29T23:49:10.504Z,99.06
2022-10-29T23:51:37.016Z,98.96
2022-10-29T23:54:03.607Z,99.10
2022-10-29T23:56:30.115Z,99.15
2022-10-29T23:58:56.688Z,99.22
